Irvington, Alabama
Current Conditions -  °F | °C
As of 3:56 PM on Friday 24 Oct 2014 (Local Time) from KMOB Reporting Station
Clear Clear  
Wind Chill: 76°   Ceiling: Unl
Heat Index: 76°   Visibility: 10mi
Dew Point: 36°   Wind: 10mph
Humidity: 23%   Direction: 40°NE
Pressure: 30.02"   Gusts: NA
Location:  30.51°N, 88.23°W
Report Text: KMOB 242056Z 04009KT 10SM CLR 24/02 A3002 RMK AO2 SLP162 T02440022 56015
Loading
Personal Weather Stations






























Interactive Weather Map
Tropical Storm Tracking
New forecast layout! Learn more

10-Day Weather Forecast

Advertisements
Track Severe Weather on mobile